Merrill, WI

11:04 PM CDT on July 29, 2015 (GMT -0500)
Merrill Municipal | | Change Station
CLOSE
Current Station
Airport
Location: Merrill,
Elevation: 1316 ft
Nearby Weather Stations

Elev 1316 ft 45.20 °N, 89.71 °W | Updated 14 days ago

Clear
Clear
68 °F
Feels Like 68 °F
N
9
Wind Variable Wind from West
Gusts 16 mph

Today
High -- | Low -- °F
--% Chance of Precip.
Yesterday
High -- | Low -- °F
Precip. -- in
5:39 AM 8:29 PM
Waxing Gibbous, 98% visible
Pressure 30.05 in
Visibility 10.0 miles
Clouds
Dew Point 53 °F
Humidity 59%
Rainfall 0.00 in
Snow Depth Not available.
UV Not available.
Pollen 4.40 out of 12
Air Quality Not available.
Flu Activity Not available.
METAR KRRL 151736Z AUTO 17003KT 10SM 22/09 A3005 RMK AO2

More Conditions Fewer Conditions

Pressure 30.05 in
Visibility 10.0 miles
Clouds
Dew Point 53 °F
Humidity 59%
Rainfall 0.00 in
Snow Depth Not available.
UV Not available.
Pollen 4.40 out of 12
Air Quality Not available.
Flu Activity Not available.
METAR KRRL 151736Z AUTO 17003KT 10SM 22/09 A3005 RMK AO2

More Conditions Fewer Conditions

10-Day Weather Forecast

×

Almanac

Astronomy

Jul. 29, 2015 Rise Set
Actual Time
Civil Twilight
Nautical Twilight
Astronomical Twilight
Moon
Length of Visible Light
Length of Day
Tomorrow will be .
, % of the Moon is Illuminated

Today's Extremes

State Highs State Lows

Community

WunderPhotos

Upload Photos

1,842,293 photos uploaded!

WunderBlogs® & News

Nearby

Air Quality

  Air Quality AQ Index Pollutant
Not available.

Snow Depth

Station Depth Elevation

Earthquake Activity

City Distance Mag. Time & Date
Minimum magnitude displayed is 2.5.

Coastal Water Temperatures

Place Temperature

Stations

Nearby Weather Stations

Station Location Temp. Windchill Dew Point Humidity Wind Precip. Elev Updated Type